sim
Sign-in with your pilot id or email,
or register
Callsign
Passwort

Schedule Details

Flight Number: RYR1146 (2)
Departure: Berlin Schonefeld Airport (EDDB) at 14:55
Arrival: Thessaloniki International Airport (LGTS) at 17:25
Route: Ryanair Passenger Schedule. Enter filed route here before submitting Pirep.

Weather Information
Getting current METAR information for EDDB 211720Z 29007KT CAVOK 22/06 Q1027 NOSIG
Getting current METAR information for LGTS 211720Z 17006KT CAVOK 30/12 Q1016 NOSIG

Schedule Frequency

Route Map